sensor_id;sensor_type;location;lat;lon;timestamp;pressure;altitude;pressure_sealevel;temperature
11792;BMP180;5953;52.372;9.918;2024-01-30T00:01:35;102026.00;;;11.80
11792;BMP180;5953;52.372;9.918;2024-01-30T00:04:06;102025.00;;;11.90
11792;BMP180;5953;52.372;9.918;2024-01-30T00:06:35;102010.00;;;11.90
11792;BMP180;5953;52.372;9.918;2024-01-30T00:09:03;102031.00;;;11.80
11792;BMP180;5953;52.372;9.918;2024-01-30T00:11:31;102023.00;;;11.80
11792;BMP180;5953;52.372;9.918;2024-01-30T00:13:59;102033.00;;;11.70
11792;BMP180;5953;52.372;9.918;2024-01-30T00:16:27;102031.00;;;11.60
11792;BMP180;5953;52.372;9.918;2024-01-30T00:18:57;102028.00;;;11.70
11792;BMP180;5953;52.372;9.918;2024-01-30T00:21:26;102026.00;;;11.60
11792;BMP180;5953;52.372;9.918;2024-01-30T00:23:54;102028.00;;;11.50
11792;BMP180;5953;52.372;9.918;2024-01-30T00:26:26;102002.00;;;11.50
11792;BMP180;5953;52.372;9.918;2024-01-30T00:28:55;102022.00;;;11.50
11792;BMP180;5953;52.372;9.918;2024-01-30T00:31:23;102026.00;;;11.40
11792;BMP180;5953;52.372;9.918;2024-01-30T00:33:55;102002.00;;;11.30
11792;BMP180;5953;52.372;9.918;2024-01-30T00:36:25;102009.00;;;11.30
11792;BMP180;5953;52.372;9.918;2024-01-30T00:38:56;102010.00;;;11.40
11792;BMP180;5953;52.372;9.918;2024-01-30T00:41:24;102012.00;;;11.40
11792;BMP180;5953;52.372;9.918;2024-01-30T00:43:53;102010.00;;;11.20
11792;BMP180;5953;52.372;9.918;2024-01-30T00:46:21;102020.00;;;11.10
11792;BMP180;5953;52.372;9.918;2024-01-30T00:48:49;102004.00;;;11.10
11792;BMP180;5953;52.372;9.918;2024-01-30T00:51:17;102008.00;;;11.00
11792;BMP180;5953;52.372;9.918;2024-01-30T00:53:46;102014.00;;;11.00
11792;BMP180;5953;52.372;9.918;2024-01-30T00:56:14;102017.00;;;11.00
11792;BMP180;5953;52.372;9.918;2024-01-30T00:58:44;102009.00;;;11.10
11792;BMP180;5953;52.372;9.918;2024-01-30T01:01:12;102024.00;;;10.90
11792;BMP180;5953;52.372;9.918;2024-01-30T01:03:41;102019.00;;;11.10
11792;BMP180;5953;52.372;9.918;2024-01-30T01:06:10;102025.00;;;11.20
11792;BMP180;5953;52.372;9.918;2024-01-30T01:08:38;102019.00;;;11.10
11792;BMP180;5953;52.372;9.918;2024-01-30T01:11:07;102028.00;;;11.20
11792;BMP180;5953;52.372;9.918;2024-01-30T01:13:36;102022.00;;;11.20
11792;BMP180;5953;52.372;9.918;2024-01-30T01:16:04;102029.00;;;11.20
11792;BMP180;5953;52.372;9.918;2024-01-30T01:18:32;102020.00;;;11.10
11792;BMP180;5953;52.372;9.918;2024-01-30T01:21:13;102029.00;;;11.20
11792;BMP180;5953;52.372;9.918;2024-01-30T01:23:41;102024.00;;;11.30
11792;BMP180;5953;52.372;9.918;2024-01-30T01:26:10;102029.00;;;11.30
11792;BMP180;5953;52.372;9.918;2024-01-30T01:28:39;102023.00;;;11.30
11792;BMP180;5953;52.372;9.918;2024-01-30T01:31:07;102025.00;;;11.30
11792;BMP180;5953;52.372;9.918;2024-01-30T01:33:35;102031.00;;;11.30
11792;BMP180;5953;52.372;9.918;2024-01-30T01:36:04;102039.00;;;11.20
11792;BMP180;5953;52.372;9.918;2024-01-30T01:38:33;102025.00;;;11.10
11792;BMP180;5953;52.372;9.918;2024-01-30T01:41:01;102008.00;;;11.10
11792;BMP180;5953;52.372;9.918;2024-01-30T01:43:30;102004.00;;;11.00
11792;BMP180;5953;52.372;9.918;2024-01-30T01:45:58;102013.00;;;10.90
11792;BMP180;5953;52.372;9.918;2024-01-30T01:48:26;102005.00;;;10.80
11792;BMP180;5953;52.372;9.918;2024-01-30T01:50:57;102008.00;;;10.80
11792;BMP180;5953;52.372;9.918;2024-01-30T01:53:25;102003.00;;;10.70
11792;BMP180;5953;52.372;9.918;2024-01-30T01:55:54;101999.00;;;10.90
11792;BMP180;5953;52.372;9.918;2024-01-30T01:58:25;102004.00;;;10.90
11792;BMP180;5953;52.372;9.918;2024-01-30T02:01:01;102003.00;;;10.80
11792;BMP180;5953;52.372;9.918;2024-01-30T02:03:30;102003.00;;;11.00
11792;BMP180;5953;52.372;9.918;2024-01-30T02:05:58;102000.00;;;10.80
11792;BMP180;5953;52.372;9.918;2024-01-30T02:08:31;101981.00;;;10.70
11792;BMP180;5953;52.372;9.918;2024-01-30T02:11:01;102003.00;;;10.60
11792;BMP180;5953;52.372;9.918;2024-01-30T02:13:31;101990.00;;;10.50
11792;BMP180;5953;52.372;9.918;2024-01-30T02:16:00;101991.00;;;10.60
11792;BMP180;5953;52.372;9.918;2024-01-30T02:18:30;101996.00;;;10.80
11792;BMP180;5953;52.372;9.918;2024-01-30T02:20:58;101986.00;;;10.80
11792;BMP180;5953;52.372;9.918;2024-01-30T02:23:30;101988.00;;;10.80
11792;BMP180;5953;52.372;9.918;2024-01-30T02:26:00;101983.00;;;10.90
11792;BMP180;5953;52.372;9.918;2024-01-30T02:28:28;101976.00;;;10.90
11792;BMP180;5953;52.372;9.918;2024-01-30T02:30:56;101973.00;;;11.00
11792;BMP180;5953;52.372;9.918;2024-01-30T02:33:26;101968.00;;;11.00
11792;BMP180;5953;52.372;9.918;2024-01-30T02:35:56;101973.00;;;11.00
11792;BMP180;5953;52.372;9.918;2024-01-30T02:38:24;101967.00;;;10.90
11792;BMP180;5953;52.372;9.918;2024-01-30T02:40:54;101969.00;;;10.90
11792;BMP180;5953;52.372;9.918;2024-01-30T02:43:27;101953.00;;;10.90
11792;BMP180;5953;52.372;9.918;2024-01-30T02:45:54;101959.00;;;10.90
11792;BMP180;5953;52.372;9.918;2024-01-30T02:48:22;101969.00;;;10.80
11792;BMP180;5953;52.372;9.918;2024-01-30T02:50:50;101965.00;;;10.80
11792;BMP180;5953;52.372;9.918;2024-01-30T02:53:19;101957.00;;;10.80
11792;BMP180;5953;52.372;9.918;2024-01-30T02:55:47;101947.00;;;10.60
11792;BMP180;5953;52.372;9.918;2024-01-30T02:58:18;101952.00;;;10.70
11792;BMP180;5953;52.372;9.918;2024-01-30T03:00:48;101945.00;;;10.90
11792;BMP180;5953;52.372;9.918;2024-01-30T03:03:16;101952.00;;;10.90
11792;BMP180;5953;52.372;9.918;2024-01-30T03:05:46;101945.00;;;10.90
11792;BMP180;5953;52.372;9.918;2024-01-30T03:08:15;101943.00;;;11.00
11792;BMP180;5953;52.372;9.918;2024-01-30T03:10:43;101945.00;;;10.90
11792;BMP180;5953;52.372;9.918;2024-01-30T03:13:17;101934.00;;;11.00
11792;BMP180;5953;52.372;9.918;2024-01-30T03:16:10;101900.00;;;11.10
11792;BMP180;5953;52.372;9.918;2024-01-30T03:18:41;101932.00;;;11.00
11792;BMP180;5953;52.372;9.918;2024-01-30T03:21:09;101928.00;;;10.90
11792;BMP180;5953;52.372;9.918;2024-01-30T03:23:39;101923.00;;;10.80
11792;BMP180;5953;52.372;9.918;2024-01-30T03:26:07;101922.00;;;10.90
11792;BMP180;5953;52.372;9.918;2024-01-30T03:28:37;101934.00;;;10.90
11792;BMP180;5953;52.372;9.918;2024-01-30T03:31:04;101932.00;;;10.70
11792;BMP180;5953;52.372;9.918;2024-01-30T03:33:34;101927.00;;;10.80
11792;BMP180;5953;52.372;9.918;2024-01-30T03:36:03;101920.00;;;10.80
11792;BMP180;5953;52.372;9.918;2024-01-30T03:38:31;101922.00;;;10.80
11792;BMP180;5953;52.372;9.918;2024-01-30T03:41:00;101930.00;;;10.70
11792;BMP180;5953;52.372;9.918;2024-01-30T03:43:30;101932.00;;;10.90
11792;BMP180;5953;52.372;9.918;2024-01-30T03:46:00;101925.00;;;10.80
11792;BMP180;5953;52.372;9.918;2024-01-30T03:48:29;101920.00;;;10.70
11792;BMP180;5953;52.372;9.918;2024-01-30T03:50:58;101930.00;;;10.90
11792;BMP180;5953;52.372;9.918;2024-01-30T03:53:29;101918.00;;;10.90
11792;BMP180;5953;52.372;9.918;2024-01-30T03:55:59;101915.00;;;10.90
11792;BMP180;5953;52.372;9.918;2024-01-30T03:58:33;101912.00;;;10.90
11792;BMP180;5953;52.372;9.918;2024-01-30T04:01:03;101898.00;;;11.00
11792;BMP180;5953;52.372;9.918;2024-01-30T04:03:32;101917.00;;;11.10
11792;BMP180;5953;52.372;9.918;2024-01-30T04:06:04;101919.00;;;11.10
11792;BMP180;5953;52.372;9.918;2024-01-30T04:08:32;101910.00;;;11.10
11792;BMP180;5953;52.372;9.918;2024-01-30T04:11:04;101905.00;;;11.10
11792;BMP180;5953;52.372;9.918;2024-01-30T04:13:32;101912.00;;;10.90
11792;BMP180;5953;52.372;9.918;2024-01-30T04:16:02;101906.00;;;11.00
11792;BMP180;5953;52.372;9.918;2024-01-30T04:18:31;101909.00;;;11.00
11792;BMP180;5953;52.372;9.918;2024-01-30T04:21:00;101911.00;;;11.10
11792;BMP180;5953;52.372;9.918;2024-01-30T04:23:28;101912.00;;;11.20
11792;BMP180;5953;52.372;9.918;2024-01-30T04:25:56;101914.00;;;11.20
11792;BMP180;5953;52.372;9.918;2024-01-30T04:28:23;101919.00;;;11.20
11792;BMP180;5953;52.372;9.918;2024-01-30T04:31:13;101912.00;;;11.10
11792;BMP180;5953;52.372;9.918;2024-01-30T04:34:05;101922.00;;;11.00
11792;BMP180;5953;52.372;9.918;2024-01-30T04:36:33;101903.00;;;10.80
11792;BMP180;5953;52.372;9.918;2024-01-30T04:39:01;101919.00;;;10.60
11792;BMP180;5953;52.372;9.918;2024-01-30T04:41:30;101924.00;;;10.50
11792;BMP180;5953;52.372;9.918;2024-01-30T04:43:58;101926.00;;;10.60
11792;BMP180;5953;52.372;9.918;2024-01-30T04:46:28;101924.00;;;10.70
11792;BMP180;5953;52.372;9.918;2024-01-30T04:48:56;101923.00;;;10.80
11792;BMP180;5953;52.372;9.918;2024-01-30T04:51:24;101923.00;;;10.90
11792;BMP180;5953;52.372;9.918;2024-01-30T04:53:51;101923.00;;;10.90
11792;BMP180;5953;52.372;9.918;2024-01-30T04:56:19;101920.00;;;10.90
11792;BMP180;5953;52.372;9.918;2024-01-30T04:58:47;101922.00;;;10.80
11792;BMP180;5953;52.372;9.918;2024-01-30T05:01:17;101904.00;;;10.80
11792;BMP180;5953;52.372;9.918;2024-01-30T05:03:46;101923.00;;;10.80
11792;BMP180;5953;52.372;9.918;2024-01-30T05:06:24;101906.00;;;11.00
11792;BMP180;5953;52.372;9.918;2024-01-30T05:08:52;101902.00;;;11.00
11792;BMP180;5953;52.372;9.918;2024-01-30T05:11:19;101909.00;;;11.00
11792;BMP180;5953;52.372;9.918;2024-01-30T05:13:47;101911.00;;;11.10
11792;BMP180;5953;52.372;9.918;2024-01-30T05:16:15;101909.00;;;11.20
11792;BMP180;5953;52.372;9.918;2024-01-30T05:18:43;101914.00;;;11.10
11792;BMP180;5953;52.372;9.918;2024-01-30T05:21:12;101911.00;;;11.20
11792;BMP180;5953;52.372;9.918;2024-01-30T05:23:40;101907.00;;;11.00
11792;BMP180;5953;52.372;9.918;2024-01-30T05:26:08;101901.00;;;11.10
11792;BMP180;5953;52.372;9.918;2024-01-30T05:28:36;101910.00;;;11.10
11792;BMP180;5953;52.372;9.918;2024-01-30T05:31:04;101912.00;;;11.00
11792;BMP180;5953;52.372;9.918;2024-01-30T05:33:32;101904.00;;;11.10
11792;BMP180;5953;52.372;9.918;2024-01-30T05:36:00;101907.00;;;11.00
11792;BMP180;5953;52.372;9.918;2024-01-30T05:38:31;101910.00;;;11.00
11792;BMP180;5953;52.372;9.918;2024-01-30T05:40:58;101907.00;;;11.00
11792;BMP180;5953;52.372;9.918;2024-01-30T05:43:29;101905.00;;;11.00
11792;BMP180;5953;52.372;9.918;2024-01-30T05:45:57;101910.00;;;11.00
11792;BMP180;5953;52.372;9.918;2024-01-30T05:48:24;101902.00;;;10.90
11792;BMP180;5953;52.372;9.918;2024-01-30T05:50:56;101912.00;;;10.90
11792;BMP180;5953;52.372;9.918;2024-01-30T05:53:24;101916.00;;;10.70
11792;BMP180;5953;52.372;9.918;2024-01-30T05:55:56;101901.00;;;10.70
11792;BMP180;5953;52.372;9.918;2024-01-30T05:58:24;101905.00;;;10.70
11792;BMP180;5953;52.372;9.918;2024-01-30T06:00:53;101907.00;;;10.80
11792;BMP180;5953;52.372;9.918;2024-01-30T06:03:21;101912.00;;;10.60
11792;BMP180;5953;52.372;9.918;2024-01-30T06:05:51;101897.00;;;10.60
11792;BMP180;5953;52.372;9.918;2024-01-30T06:08:21;101905.00;;;10.60
11792;BMP180;5953;52.372;9.918;2024-01-30T06:10:49;101905.00;;;10.60
11792;BMP180;5953;52.372;9.918;2024-01-30T06:13:20;101895.00;;;10.50
11792;BMP180;5953;52.372;9.918;2024-01-30T06:15:48;101896.00;;;10.50
11792;BMP180;5953;52.372;9.918;2024-01-30T06:18:16;101902.00;;;10.30
11792;BMP180;5953;52.372;9.918;2024-01-30T06:20:44;101897.00;;;10.40
11792;BMP180;5953;52.372;9.918;2024-01-30T06:23:12;101897.00;;;10.40
11792;BMP180;5953;52.372;9.918;2024-01-30T06:25:42;101888.00;;;10.40
11792;BMP180;5953;52.372;9.918;2024-01-30T06:28:11;101897.00;;;10.40
11792;BMP180;5953;52.372;9.918;2024-01-30T06:30:43;101892.00;;;10.30
11792;BMP180;5953;52.372;9.918;2024-01-30T06:33:11;101899.00;;;10.40
11792;BMP180;5953;52.372;9.918;2024-01-30T06:35:41;101884.00;;;10.40
11792;BMP180;5953;52.372;9.918;2024-01-30T06:38:10;101892.00;;;10.30
11792;BMP180;5953;52.372;9.918;2024-01-30T06:40:55;101894.00;;;10.30
11792;BMP180;5953;52.372;9.918;2024-01-30T06:43:23;101882.00;;;10.20
11792;BMP180;5953;52.372;9.918;2024-01-30T06:45:56;101856.00;;;10.30
11792;BMP180;5953;52.372;9.918;2024-01-30T06:48:28;101878.00;;;10.40
11792;BMP180;5953;52.372;9.918;2024-01-30T06:51:10;101849.00;;;10.40
11792;BMP180;5953;52.372;9.918;2024-01-30T06:53:40;101881.00;;;10.40
11792;BMP180;5953;52.372;9.918;2024-01-30T06:56:08;101887.00;;;10.50
11792;BMP180;5953;52.372;9.918;2024-01-30T06:58:36;101884.00;;;10.60
11792;BMP180;5953;52.372;9.918;2024-01-30T07:01:06;101879.00;;;10.40
11792;BMP180;5953;52.372;9.918;2024-01-30T07:03:34;101884.00;;;10.50
11792;BMP180;5953;52.372;9.918;2024-01-30T07:06:02;101859.00;;;10.30
11792;BMP180;5953;52.372;9.918;2024-01-30T07:08:31;101888.00;;;10.40
11792;BMP180;5953;52.372;9.918;2024-01-30T07:10:59;101832.00;;;10.40
11792;BMP180;5953;52.372;9.918;2024-01-30T07:13:28;101889.00;;;10.40
11792;BMP180;5953;52.372;9.918;2024-01-30T07:15:56;101874.00;;;10.40
11792;BMP180;5953;52.372;9.918;2024-01-30T07:18:26;101887.00;;;10.30
11792;BMP180;5953;52.372;9.918;2024-01-30T07:20:53;101893.00;;;10.30
11792;BMP180;5953;52.372;9.918;2024-01-30T07:23:21;101891.00;;;10.40
11792;BMP180;5953;52.372;9.918;2024-01-30T07:25:49;101857.00;;;10.40
11792;BMP180;5953;52.372;9.918;2024-01-30T07:28:17;101886.00;;;10.20
11792;BMP180;5953;52.372;9.918;2024-01-30T07:30:45;101883.00;;;10.30
11792;BMP180;5953;52.372;9.918;2024-01-30T07:33:14;101885.00;;;10.30
11792;BMP180;5953;52.372;9.918;2024-01-30T07:35:44;101884.00;;;10.30
11792;BMP180;5953;52.372;9.918;2024-01-30T07:38:12;101883.00;;;10.30
11792;BMP180;5953;52.372;9.918;2024-01-30T07:40:40;101881.00;;;10.20
11792;BMP180;5953;52.372;9.918;2024-01-30T07:43:08;101886.00;;;10.20
11792;BMP180;5953;52.372;9.918;2024-01-30T07:45:37;101896.00;;;10.10
11792;BMP180;5953;52.372;9.918;2024-01-30T07:48:05;101883.00;;;10.10
11792;BMP180;5953;52.372;9.918;2024-01-30T07:50:33;101879.00;;;10.20
11792;BMP180;5953;52.372;9.918;2024-01-30T07:53:04;101865.00;;;10.30
11792;BMP180;5953;52.372;9.918;2024-01-30T07:55:32;101892.00;;;10.00
11792;BMP180;5953;52.372;9.918;2024-01-30T07:58:00;101883.00;;;10.30
11792;BMP180;5953;52.372;9.918;2024-01-30T08:00:27;101887.00;;;10.30
11792;BMP180;5953;52.372;9.918;2024-01-30T08:02:56;101891.00;;;10.20
11792;BMP180;5953;52.372;9.918;2024-01-30T08:05:25;101887.00;;;10.30
11792;BMP180;5953;52.372;9.918;2024-01-30T08:07:53;101886.00;;;10.40
11792;BMP180;5953;52.372;9.918;2024-01-30T08:10:23;101884.00;;;10.40
11792;BMP180;5953;52.372;9.918;2024-01-30T08:12:50;101883.00;;;10.30
11792;BMP180;5953;52.372;9.918;2024-01-30T08:15:18;101888.00;;;10.50
11792;BMP180;5953;52.372;9.918;2024-01-30T08:17:52;101890.00;;;10.50
11792;BMP180;5953;52.372;9.918;2024-01-30T08:20:27;101879.00;;;10.60
11792;BMP180;5953;52.372;9.918;2024-01-30T08:22:57;101883.00;;;10.70
11792;BMP180;5953;52.372;9.918;2024-01-30T08:25:32;101874.00;;;10.80
11792;BMP180;5953;52.372;9.918;2024-01-30T08:28:00;101874.00;;;10.80
11792;BMP180;5953;52.372;9.918;2024-01-30T08:30:30;101870.00;;;10.70
11792;BMP180;5953;52.372;9.918;2024-01-30T08:32:58;101869.00;;;10.80
11792;BMP180;5953;52.372;9.918;2024-01-30T08:35:37;101849.00;;;10.80
11792;BMP180;5953;52.372;9.918;2024-01-30T08:38:05;101861.00;;;10.80
11792;BMP180;5953;52.372;9.918;2024-01-30T08:40:34;101860.00;;;10.70
11792;BMP180;5953;52.372;9.918;2024-01-30T08:43:02;101862.00;;;10.90
11792;BMP180;5953;52.372;9.918;2024-01-30T08:45:36;101878.00;;;11.00
11792;BMP180;5953;52.372;9.918;2024-01-30T08:48:05;101870.00;;;10.80
11792;BMP180;5953;52.372;9.918;2024-01-30T08:50:34;101858.00;;;10.70
11792;BMP180;5953;52.372;9.918;2024-01-30T08:53:10;101879.00;;;10.90
11792;BMP180;5953;52.372;9.918;2024-01-30T08:55:44;101881.00;;;11.10
11792;BMP180;5953;52.372;9.918;2024-01-30T08:58:12;101887.00;;;11.30
11792;BMP180;5953;52.372;9.918;2024-01-30T09:00:42;101878.00;;;11.30
11792;BMP180;5953;52.372;9.918;2024-01-30T09:03:12;101876.00;;;11.20
11792;BMP180;5953;52.372;9.918;2024-01-30T09:05:42;101872.00;;;11.40
11792;BMP180;5953;52.372;9.918;2024-01-30T09:08:10;101871.00;;;11.50
11792;BMP180;5953;52.372;9.918;2024-01-30T09:10:40;101882.00;;;11.40
11792;BMP180;5953;52.372;9.918;2024-01-30T09:13:11;101865.00;;;11.70
11792;BMP180;5953;52.372;9.918;2024-01-30T09:15:50;101862.00;;;11.40
11792;BMP180;5953;52.372;9.918;2024-01-30T09:18:19;101869.00;;;11.70
11792;BMP180;5953;52.372;9.918;2024-01-30T09:20:49;101862.00;;;11.60
11792;BMP180;5953;52.372;9.918;2024-01-30T09:23:20;101882.00;;;11.60
11792;BMP180;5953;52.372;9.918;2024-01-30T09:25:48;101875.00;;;11.70
11792;BMP180;5953;52.372;9.918;2024-01-30T09:28:17;101881.00;;;11.80
11792;BMP180;5953;52.372;9.918;2024-01-30T09:30:46;101877.00;;;11.90
11792;BMP180;5953;52.372;9.918;2024-01-30T09:33:16;101869.00;;;12.00
11792;BMP180;5953;52.372;9.918;2024-01-30T09:35:44;101877.00;;;12.00
11792;BMP180;5953;52.372;9.918;2024-01-30T09:38:14;101883.00;;;12.20
11792;BMP180;5953;52.372;9.918;2024-01-30T09:40:53;101865.00;;;12.20
11792;BMP180;5953;52.372;9.918;2024-01-30T09:43:23;101879.00;;;12.30
11792;BMP180;5953;52.372;9.918;2024-01-30T09:45:56;101844.00;;;12.40
11792;BMP180;5953;52.372;9.918;2024-01-30T09:48:29;101874.00;;;12.30
11792;BMP180;5953;52.372;9.918;2024-01-30T09:51:02;101870.00;;;12.30
11792;BMP180;5953;52.372;9.918;2024-01-30T09:53:30;101872.00;;;12.40
11792;BMP180;5953;52.372;9.918;2024-01-30T09:56:07;101841.00;;;12.20
11792;BMP180;5953;52.372;9.918;2024-01-30T09:58:39;101873.00;;;12.20
11792;BMP180;5953;52.372;9.918;2024-01-30T10:01:08;101873.00;;;12.30
11792;BMP180;5953;52.372;9.918;2024-01-30T10:03:38;101870.00;;;12.30
11792;BMP180;5953;52.372;9.918;2024-01-30T10:06:34;101831.00;;;12.40
11792;BMP180;5953;52.372;9.918;2024-01-30T10:09:21;101886.00;;;12.50
11792;BMP180;5953;52.372;9.918;2024-01-30T10:12:16;101870.00;;;12.60
11792;BMP180;5953;52.372;9.918;2024-01-30T10:14:47;101870.00;;;12.90
11792;BMP180;5953;52.372;9.918;2024-01-30T10:17:15;101869.00;;;13.00
11792;BMP180;5953;52.372;9.918;2024-01-30T10:19:59;101869.00;;;13.00
11792;BMP180;5953;52.372;9.918;2024-01-30T10:22:28;101851.00;;;13.00
11792;BMP180;5953;52.372;9.918;2024-01-30T10:24:58;101869.00;;;13.10
11792;BMP180;5953;52.372;9.918;2024-01-30T10:27:34;101857.00;;;13.20
11792;BMP180;5953;52.372;9.918;2024-01-30T10:30:05;101857.00;;;13.30
11792;BMP180;5953;52.372;9.918;2024-01-30T10:32:37;101857.00;;;13.40
11792;BMP180;5953;52.372;9.918;2024-01-30T10:35:07;101857.00;;;13.40
11792;BMP180;5953;52.372;9.918;2024-01-30T10:37:39;101856.00;;;13.30
11792;BMP180;5953;52.372;9.918;2024-01-30T10:40:09;101850.00;;;13.40
11792;BMP180;5953;52.372;9.918;2024-01-30T10:42:54;101801.00;;;13.40
11792;BMP180;5953;52.372;9.918;2024-01-30T10:45:31;101853.00;;;13.50
11792;BMP180;5953;52.372;9.918;2024-01-30T10:48:04;101836.00;;;13.30
11792;BMP180;5953;52.372;9.918;2024-01-30T10:50:34;101839.00;;;13.40
11792;BMP180;5953;52.372;9.918;2024-01-30T10:53:39;101796.00;;;13.40
11792;BMP180;5953;52.372;9.918;2024-01-30T10:56:21;101841.00;;;13.70
11792;BMP180;5953;52.372;9.918;2024-01-30T10:58:56;101844.00;;;13.50
11792;BMP180;5953;52.372;9.918;2024-01-30T11:01:53;101796.00;;;13.60
11792;BMP180;5953;52.372;9.918;2024-01-30T11:04:22;101823.00;;;13.60
11792;BMP180;5953;52.372;9.918;2024-01-30T11:07:28;101822.00;;;13.40
11792;BMP180;5953;52.372;9.918;2024-01-30T11:10:04;101846.00;;;13.80
11792;BMP180;5953;52.372;9.918;2024-01-30T11:12:40;101838.00;;;13.80
11792;BMP180;5953;52.372;9.918;2024-01-30T11:15:17;101808.00;;;13.90
11792;BMP180;5953;52.372;9.918;2024-01-30T11:18:05;101812.00;;;13.60
11792;BMP180;5953;52.372;9.918;2024-01-30T11:20:39;101800.00;;;13.70
11792;BMP180;5953;52.372;9.918;2024-01-30T11:23:44;101804.00;;;13.20
11792;BMP180;5953;52.372;9.918;2024-01-30T11:26:16;101824.00;;;13.80
11792;BMP180;5953;52.372;9.918;2024-01-30T11:28:52;101821.00;;;13.90
11792;BMP180;5953;52.372;9.918;2024-01-30T11:31:27;101809.00;;;14.00
11792;BMP180;5953;52.372;9.918;2024-01-30T11:34:01;101815.00;;;13.90
11792;BMP180;5953;52.372;9.918;2024-01-30T11:36:37;101814.00;;;14.20
11792;BMP180;5953;52.372;9.918;2024-01-30T11:39:08;101819.00;;;14.30
11792;BMP180;5953;52.372;9.918;2024-01-30T11:41:39;101793.00;;;14.20
11792;BMP180;5953;52.372;9.918;2024-01-30T11:44:32;101818.00;;;14.20
11792;BMP180;5953;52.372;9.918;2024-01-30T11:47:24;101788.00;;;14.20
11792;BMP180;5953;52.372;9.918;2024-01-30T11:50:22;101776.00;;;13.90
11792;BMP180;5953;52.372;9.918;2024-01-30T11:52:55;101814.00;;;13.90
11792;BMP180;5953;52.372;9.918;2024-01-30T11:55:55;101787.00;;;13.60
11792;BMP180;5953;52.372;9.918;2024-01-30T11:58:46;101816.00;;;13.90
11792;BMP180;5953;52.372;9.918;2024-01-30T12:01:36;101820.00;;;13.80
11792;BMP180;5953;52.372;9.918;2024-01-30T12:05:16;101775.00;;;13.90
11792;BMP180;5953;52.372;9.918;2024-01-30T12:07:31;101767.00;;;14.00
11792;BMP180;5953;52.372;9.918;2024-01-30T12:13:55;101769.00;;;14.10
11792;BMP180;5953;52.372;9.918;2024-01-30T12:16:23;101758.00;;;14.30
11792;BMP180;5953;52.372;9.918;2024-01-30T12:18:59;101785.00;;;14.30
11792;BMP180;5953;52.372;9.918;2024-01-30T12:21:30;101779.00;;;14.60
11792;BMP180;5953;52.372;9.918;2024-01-30T12:24:00;101773.00;;;14.70
11792;BMP180;5953;52.372;9.918;2024-01-30T12:26:30;101772.00;;;14.90
11792;BMP180;5953;52.372;9.918;2024-01-30T12:28:58;101760.00;;;15.00
11792;BMP180;5953;52.372;9.918;2024-01-30T12:31:28;101756.00;;;14.70
11792;BMP180;5953;52.372;9.918;2024-01-30T12:34:00;101770.00;;;14.90
11792;BMP180;5953;52.372;9.918;2024-01-30T12:36:28;101797.00;;;14.80
11792;BMP180;5953;52.372;9.918;2024-01-30T12:39:03;101817.00;;;14.80
11792;BMP180;5953;52.372;9.918;2024-01-30T12:42:09;101799.00;;;15.00
11792;BMP180;5953;52.372;9.918;2024-01-30T12:44:45;101803.00;;;15.10
11792;BMP180;5953;52.372;9.918;2024-01-30T12:47:23;101783.00;;;14.70
11792;BMP180;5953;52.372;9.918;2024-01-30T12:50:06;101810.00;;;14.80
11792;BMP180;5953;52.372;9.918;2024-01-30T12:53:09;101781.00;;;14.90
11792;BMP180;5953;52.372;9.918;2024-01-30T12:55:45;101798.00;;;15.00
11792;BMP180;5953;52.372;9.918;2024-01-30T12:58:24;101797.00;;;14.90
11792;BMP180;5953;52.372;9.918;2024-01-30T13:01:03;101801.00;;;14.30
11792;BMP180;5953;52.372;9.918;2024-01-30T13:03:37;101811.00;;;14.80
11792;BMP180;5953;52.372;9.918;2024-01-30T13:06:21;101809.00;;;14.70
11792;BMP180;5953;52.372;9.918;2024-01-30T13:10:08;101803.00;;;14.90
11792;BMP180;5953;52.372;9.918;2024-01-30T13:12:22;101796.00;;;14.80
11792;BMP180;5953;52.372;9.918;2024-01-30T13:15:12;101798.00;;;14.70
11792;BMP180;5953;52.372;9.918;2024-01-30T13:18:24;101780.00;;;14.80
11792;BMP180;5953;52.372;9.918;2024-01-30T13:20:59;101808.00;;;14.80
11792;BMP180;5953;52.372;9.918;2024-01-30T13:23:33;101789.00;;;14.70
11792;BMP180;5953;52.372;9.918;2024-01-30T13:26:22;101779.00;;;14.40
11792;BMP180;5953;52.372;9.918;2024-01-30T13:29:08;101791.00;;;14.90
11792;BMP180;5953;52.372;9.918;2024-01-30T13:31:47;101805.00;;;14.70
11792;BMP180;5953;52.372;9.918;2024-01-30T13:35:00;101810.00;;;14.80
11792;BMP180;5953;52.372;9.918;2024-01-30T13:38:24;101811.00;;;14.90
11792;BMP180;5953;52.372;9.918;2024-01-30T13:41:17;101821.00;;;15.10
11792;BMP180;5953;52.372;9.918;2024-01-30T13:44:01;101827.00;;;14.90
11792;BMP180;5953;52.372;9.918;2024-01-30T13:47:09;101835.00;;;15.10
11792;BMP180;5953;52.372;9.918;2024-01-30T13:50:35;101830.00;;;15.00
11792;BMP180;5953;52.372;9.918;2024-01-30T13:53:21;101795.00;;;15.10
11792;BMP180;5953;52.372;9.918;2024-01-30T13:56:16;101824.00;;;15.30
11792;BMP180;5953;52.372;9.918;2024-01-30T13:59:03;101826.00;;;15.20
11792;BMP180;5953;52.372;9.918;2024-01-30T14:01:56;101793.00;;;15.40
11792;BMP180;5953;52.372;9.918;2024-01-30T14:06:01;101826.00;;;15.00
11792;BMP180;5953;52.372;9.918;2024-01-30T14:10:07;101812.00;;;15.20
11792;BMP180;5953;52.372;9.918;2024-01-30T14:11:18;101823.00;;;15.30
11792;BMP180;5953;52.372;9.918;2024-01-30T14:13:49;101800.00;;;15.20
11792;BMP180;5953;52.372;9.918;2024-01-30T14:16:19;101816.00;;;15.30
11792;BMP180;5953;52.372;9.918;2024-01-30T14:18:55;101785.00;;;15.40
11792;BMP180;5953;52.372;9.918;2024-01-30T14:21:39;101823.00;;;15.40
11792;BMP180;5953;52.372;9.918;2024-01-30T14:24:20;101813.00;;;15.40
11792;BMP180;5953;52.372;9.918;2024-01-30T14:26:51;101808.00;;;15.40
11792;BMP180;5953;52.372;9.918;2024-01-30T14:29:19;101823.00;;;15.40
11792;BMP180;5953;52.372;9.918;2024-01-30T14:32:02;101823.00;;;15.50
11792;BMP180;5953;52.372;9.918;2024-01-30T14:34:38;101799.00;;;15.40
11792;BMP180;5953;52.372;9.918;2024-01-30T14:37:13;101779.00;;;15.30
11792;BMP180;5953;52.372;9.918;2024-01-30T14:40:03;101795.00;;;15.20
11792;BMP180;5953;52.372;9.918;2024-01-30T14:42:39;101797.00;;;15.30
11792;BMP180;5953;52.372;9.918;2024-01-30T14:45:07;101803.00;;;15.30
11792;BMP180;5953;52.372;9.918;2024-01-30T14:47:43;101812.00;;;15.50
11792;BMP180;5953;52.372;9.918;2024-01-30T14:50:14;101819.00;;;15.50